sensor_id;sensor_type;location;lat;lon;timestamp;temperature;humidity
19415;DHT22;9843;48.882;12.592;2022-09-01T00:02:04;15.10;99.90
19415;DHT22;9843;48.882;12.592;2022-09-01T00:04:33;15.10;99.90
19415;DHT22;9843;48.882;12.592;2022-09-01T00:07:04;15.10;99.90
19415;DHT22;9843;48.882;12.592;2022-09-01T00:09:31;15.10;99.90
19415;DHT22;9843;48.882;12.592;2022-09-01T00:11:58;15.10;99.90
19415;DHT22;9843;48.882;12.592;2022-09-01T00:14:27;15.00;99.90
19415;DHT22;9843;48.882;12.592;2022-09-01T00:16:54;15.00;99.90
19415;DHT22;9843;48.882;12.592;2022-09-01T00:19:21;15.00;99.90
19415;DHT22;9843;48.882;12.592;2022-09-01T00:21:48;15.10;99.90
19415;DHT22;9843;48.882;12.592;2022-09-01T00:24:18;15.10;99.90
19415;DHT22;9843;48.882;12.592;2022-09-01T00:26:45;15.10;99.90
19415;DHT22;9843;48.882;12.592;2022-09-01T00:29:12;15.10;99.90
19415;DHT22;9843;48.882;12.592;2022-09-01T00:31:39;15.10;99.90
19415;DHT22;9843;48.882;12.592;2022-09-01T00:34:06;15.10;99.90
19415;DHT22;9843;48.882;12.592;2022-09-01T00:36:33;15.10;99.90
19415;DHT22;9843;48.882;12.592;2022-09-01T00:39:00;15.10;99.90
19415;DHT22;9843;48.882;12.592;2022-09-01T00:41:31;15.10;99.90
19415;DHT22;9843;48.882;12.592;2022-09-01T00:44:00;15.10;99.90
19415;DHT22;9843;48.882;12.592;2022-09-01T00:46:31;15.00;99.90
19415;DHT22;9843;48.882;12.592;2022-09-01T00:49:00;15.00;99.90
19415;DHT22;9843;48.882;12.592;2022-09-01T00:51:29;15.00;99.90
19415;DHT22;9843;48.882;12.592;2022-09-01T00:53:58;15.00;99.90
19415;DHT22;9843;48.882;12.592;2022-09-01T00:56:27;15.00;99.90
19415;DHT22;9843;48.882;12.592;2022-09-01T00:58:54;15.00;99.90
19415;DHT22;9843;48.882;12.592;2022-09-01T01:01:21;15.00;99.90
19415;DHT22;9843;48.882;12.592;2022-09-01T01:03:48;15.00;99.90
19415;DHT22;9843;48.882;12.592;2022-09-01T01:06:16;15.00;99.90
19415;DHT22;9843;48.882;12.592;2022-09-01T01:08:46;15.00;99.90
19415;DHT22;9843;48.882;12.592;2022-09-01T01:11:24;15.00;99.90
19415;DHT22;9843;48.882;12.592;2022-09-01T01:13:54;15.00;99.90
19415;DHT22;9843;48.882;12.592;2022-09-01T01:16:23;15.00;99.90
19415;DHT22;9843;48.882;12.592;2022-09-01T01:18:50;15.00;99.90
19415;DHT22;9843;48.882;12.592;2022-09-01T01:21:21;15.00;99.90
19415;DHT22;9843;48.882;12.592;2022-09-01T01:24:20;15.10;99.90
19415;DHT22;9843;48.882;12.592;2022-09-01T01:26:47;15.00;99.90
19415;DHT22;9843;48.882;12.592;2022-09-01T01:29:14;15.00;99.90
19415;DHT22;9843;48.882;12.592;2022-09-01T01:31:42;15.00;99.90
19415;DHT22;9843;48.882;12.592;2022-09-01T01:34:09;15.00;99.90
19415;DHT22;9843;48.882;12.592;2022-09-01T01:36:37;15.00;99.90
19415;DHT22;9843;48.882;12.592;2022-09-01T01:39:07;15.00;99.90
19415;DHT22;9843;48.882;12.592;2022-09-01T01:41:37;15.00;99.90
19415;DHT22;9843;48.882;12.592;2022-09-01T01:44:08;15.00;99.90
19415;DHT22;9843;48.882;12.592;2022-09-01T01:46:40;15.00;99.90
19415;DHT22;9843;48.882;12.592;2022-09-01T01:49:07;15.10;99.90
19415;DHT22;9843;48.882;12.592;2022-09-01T01:51:34;15.00;99.90
19415;DHT22;9843;48.882;12.592;2022-09-01T01:54:01;15.00;99.90
19415;DHT22;9843;48.882;12.592;2022-09-01T01:56:31;15.10;99.90
19415;DHT22;9843;48.882;12.592;2022-09-01T01:58:59;15.00;99.90
19415;DHT22;9843;48.882;12.592;2022-09-01T02:01:28;15.10;99.90
19415;DHT22;9843;48.882;12.592;2022-09-01T02:03:57;15.10;99.90
19415;DHT22;9843;48.882;12.592;2022-09-01T02:06:25;15.10;99.90
19415;DHT22;9843;48.882;12.592;2022-09-01T02:08:54;15.10;99.90
19415;DHT22;9843;48.882;12.592;2022-09-01T02:11:22;15.10;99.90
19415;DHT22;9843;48.882;12.592;2022-09-01T02:13:50;15.10;99.90
19415;DHT22;9843;48.882;12.592;2022-09-01T02:16:22;15.20;99.90
19415;DHT22;9843;48.882;12.592;2022-09-01T02:18:49;15.20;99.90
19415;DHT22;9843;48.882;12.592;2022-09-01T02:21:20;15.20;99.90
19415;DHT22;9843;48.882;12.592;2022-09-01T02:23:50;15.20;99.90
19415;DHT22;9843;48.882;12.592;2022-09-01T02:26:26;15.20;99.90
19415;DHT22;9843;48.882;12.592;2022-09-01T02:28:58;15.20;99.90
19415;DHT22;9843;48.882;12.592;2022-09-01T02:31:30;15.20;99.90
19415;DHT22;9843;48.882;12.592;2022-09-01T02:33:59;15.20;99.90
19415;DHT22;9843;48.882;12.592;2022-09-01T02:36:27;15.20;99.90
19415;DHT22;9843;48.882;12.592;2022-09-01T02:38:57;15.30;99.90
19415;DHT22;9843;48.882;12.592;2022-09-01T02:41:24;15.30;99.90
19415;DHT22;9843;48.882;12.592;2022-09-01T02:43:59;15.30;99.90
19415;DHT22;9843;48.882;12.592;2022-09-01T02:46:26;15.30;99.90
19415;DHT22;9843;48.882;12.592;2022-09-01T02:48:55;15.30;99.90
19415;DHT22;9843;48.882;12.592;2022-09-01T02:51:23;15.30;99.90
19415;DHT22;9843;48.882;12.592;2022-09-01T02:53:50;15.30;99.90
19415;DHT22;9843;48.882;12.592;2022-09-01T02:56:19;15.30;99.90
19415;DHT22;9843;48.882;12.592;2022-09-01T02:58:49;15.20;99.90
19415;DHT22;9843;48.882;12.592;2022-09-01T03:01:19;15.30;99.90
19415;DHT22;9843;48.882;12.592;2022-09-01T03:03:47;15.20;99.90
19415;DHT22;9843;48.882;12.592;2022-09-01T03:06:15;15.20;99.90
19415;DHT22;9843;48.882;12.592;2022-09-01T03:08:49;15.20;99.90
19415;DHT22;9843;48.882;12.592;2022-09-01T03:11:16;15.20;99.90
19415;DHT22;9843;48.882;12.592;2022-09-01T03:13:43;15.20;99.90
19415;DHT22;9843;48.882;12.592;2022-09-01T03:16:10;15.30;99.90
19415;DHT22;9843;48.882;12.592;2022-09-01T03:18:38;15.20;99.90
19415;DHT22;9843;48.882;12.592;2022-09-01T03:21:08;15.20;99.90
19415;DHT22;9843;48.882;12.592;2022-09-01T03:23:41;15.20;99.90
19415;DHT22;9843;48.882;12.592;2022-09-01T03:26:08;15.20;99.90
19415;DHT22;9843;48.882;12.592;2022-09-01T03:28:35;15.10;99.90
19415;DHT22;9843;48.882;12.592;2022-09-01T03:31:03;15.10;99.90
19415;DHT22;9843;48.882;12.592;2022-09-01T03:33:30;15.10;99.90
19415;DHT22;9843;48.882;12.592;2022-09-01T03:35:58;15.10;99.90
19415;DHT22;9843;48.882;12.592;2022-09-01T03:38:25;15.00;99.90
19415;DHT22;9843;48.882;12.592;2022-09-01T03:40:56;15.00;99.90
19415;DHT22;9843;48.882;12.592;2022-09-01T03:43:27;15.00;99.90
19415;DHT22;9843;48.882;12.592;2022-09-01T03:45:55;15.00;99.90
19415;DHT22;9843;48.882;12.592;2022-09-01T03:48:22;15.00;99.90
19415;DHT22;9843;48.882;12.592;2022-09-01T03:50:51;15.00;99.90
19415;DHT22;9843;48.882;12.592;2022-09-01T03:53:19;15.00;99.90
19415;DHT22;9843;48.882;12.592;2022-09-01T03:55:48;15.00;99.90
19415;DHT22;9843;48.882;12.592;2022-09-01T03:58:17;15.00;99.90
19415;DHT22;9843;48.882;12.592;2022-09-01T04:00:47;15.00;99.90
19415;DHT22;9843;48.882;12.592;2022-09-01T04:03:15;14.90;99.90
19415;DHT22;9843;48.882;12.592;2022-09-01T04:05:46;14.90;99.90
19415;DHT22;9843;48.882;12.592;2022-09-01T04:08:14;14.90;99.90
19415;DHT22;9843;48.882;12.592;2022-09-01T04:10:43;14.90;99.90
19415;DHT22;9843;48.882;12.592;2022-09-01T04:13:15;14.90;99.90
19415;DHT22;9843;48.882;12.592;2022-09-01T04:15:42;14.90;99.90
19415;DHT22;9843;48.882;12.592;2022-09-01T04:18:09;14.90;99.90
19415;DHT22;9843;48.882;12.592;2022-09-01T04:20:37;14.90;99.90
19415;DHT22;9843;48.882;12.592;2022-09-01T04:23:15;14.80;99.90
19415;DHT22;9843;48.882;12.592;2022-09-01T04:25:52;14.80;99.90
19415;DHT22;9843;48.882;12.592;2022-09-01T04:28:23;14.80;99.90
19415;DHT22;9843;48.882;12.592;2022-09-01T04:30:52;14.80;99.90
19415;DHT22;9843;48.882;12.592;2022-09-01T04:33:20;14.80;99.90
19415;DHT22;9843;48.882;12.592;2022-09-01T04:35:47;14.80;99.90
19415;DHT22;9843;48.882;12.592;2022-09-01T04:38:15;14.80;99.90
19415;DHT22;9843;48.882;12.592;2022-09-01T04:40:42;14.80;99.90
19415;DHT22;9843;48.882;12.592;2022-09-01T04:43:09;14.80;99.90
19415;DHT22;9843;48.882;12.592;2022-09-01T04:45:37;14.80;99.90
19415;DHT22;9843;48.882;12.592;2022-09-01T04:48:05;14.80;99.90
19415;DHT22;9843;48.882;12.592;2022-09-01T04:50:32;14.80;99.90
19415;DHT22;9843;48.882;12.592;2022-09-01T04:53:01;14.80;99.90
19415;DHT22;9843;48.882;12.592;2022-09-01T04:55:29;14.90;99.90
19415;DHT22;9843;48.882;12.592;2022-09-01T04:57:58;14.90;99.90
19415;DHT22;9843;48.882;12.592;2022-09-01T05:00:29;14.90;99.90
19415;DHT22;9843;48.882;12.592;2022-09-01T05:03:00;14.90;99.90
19415;DHT22;9843;48.882;12.592;2022-09-01T05:05:34;14.90;99.90
19415;DHT22;9843;48.882;12.592;2022-09-01T05:08:04;15.00;99.90
19415;DHT22;9843;48.882;12.592;2022-09-01T05:10:30;15.00;99.90
19415;DHT22;9843;48.882;12.592;2022-09-01T05:13:01;15.00;99.90
19415;DHT22;9843;48.882;12.592;2022-09-01T05:15:35;15.10;99.90
19415;DHT22;9843;48.882;12.592;2022-09-01T05:18:03;15.10;99.90
19415;DHT22;9843;48.882;12.592;2022-09-01T05:20:36;15.10;99.90
19415;DHT22;9843;48.882;12.592;2022-09-01T05:23:04;15.20;99.90
19415;DHT22;9843;48.882;12.592;2022-09-01T05:25:36;15.10;99.90
19415;DHT22;9843;48.882;12.592;2022-09-01T05:28:04;15.10;99.90
19415;DHT22;9843;48.882;12.592;2022-09-01T05:30:32;15.20;99.90
19415;DHT22;9843;48.882;12.592;2022-09-01T05:33:01;15.20;99.90
19415;DHT22;9843;48.882;12.592;2022-09-01T05:35:29;15.20;99.90
19415;DHT22;9843;48.882;12.592;2022-09-01T05:37:55;15.30;99.90
19415;DHT22;9843;48.882;12.592;2022-09-01T05:40:23;15.40;99.90
19415;DHT22;9843;48.882;12.592;2022-09-01T05:42:49;15.50;99.90
19415;DHT22;9843;48.882;12.592;2022-09-01T05:45:18;15.60;99.90
19415;DHT22;9843;48.882;12.592;2022-09-01T05:47:47;15.60;99.90
19415;DHT22;9843;48.882;12.592;2022-09-01T05:50:14;15.70;99.90
19415;DHT22;9843;48.882;12.592;2022-09-01T05:52:45;15.80;99.90
19415;DHT22;9843;48.882;12.592;2022-09-01T05:55:13;16.00;99.90
19415;DHT22;9843;48.882;12.592;2022-09-01T05:57:41;16.20;99.90
19415;DHT22;9843;48.882;12.592;2022-09-01T06:00:09;16.40;99.90
19415;DHT22;9843;48.882;12.592;2022-09-01T06:02:39;16.60;99.90
19415;DHT22;9843;48.882;12.592;2022-09-01T06:05:08;16.90;99.90
19415;DHT22;9843;48.882;12.592;2022-09-01T06:07:35;17.20;99.90
19415;DHT22;9843;48.882;12.592;2022-09-01T06:10:04;17.40;99.90
19415;DHT22;9843;48.882;12.592;2022-09-01T06:12:31;17.70;99.90
19415;DHT22;9843;48.882;12.592;2022-09-01T06:14:58;17.80;99.90
19415;DHT22;9843;48.882;12.592;2022-09-01T06:17:26;18.00;99.90
19415;DHT22;9843;48.882;12.592;2022-09-01T06:19:55;18.20;99.90
19415;DHT22;9843;48.882;12.592;2022-09-01T06:22:23;18.40;99.90
19415;DHT22;9843;48.882;12.592;2022-09-01T06:24:50;18.50;99.90
19415;DHT22;9843;48.882;12.592;2022-09-01T06:27:20;18.50;99.90
19415;DHT22;9843;48.882;12.592;2022-09-01T06:29:47;18.80;99.90
19415;DHT22;9843;48.882;12.592;2022-09-01T06:32:21;19.10;99.90
19415;DHT22;9843;48.882;12.592;2022-09-01T06:34:50;19.40;99.90
19415;DHT22;9843;48.882;12.592;2022-09-01T06:37:17;19.60;99.90
19415;DHT22;9843;48.882;12.592;2022-09-01T06:39:47;19.80;99.90
19415;DHT22;9843;48.882;12.592;2022-09-01T06:42:14;19.70;99.90
19415;DHT22;9843;48.882;12.592;2022-09-01T06:44:43;19.50;99.90
19415;DHT22;9843;48.882;12.592;2022-09-01T06:47:10;19.20;99.90
19415;DHT22;9843;48.882;12.592;2022-09-01T06:49:37;18.80;99.90
19415;DHT22;9843;48.882;12.592;2022-09-01T06:52:05;18.70;99.90
19415;DHT22;9843;48.882;12.592;2022-09-01T06:54:32;18.60;99.90
19415;DHT22;9843;48.882;12.592;2022-09-01T06:57:00;18.60;99.90
19415;DHT22;9843;48.882;12.592;2022-09-01T06:59:29;18.40;99.90
19415;DHT22;9843;48.882;12.592;2022-09-01T07:01:58;18.30;99.90
19415;DHT22;9843;48.882;12.592;2022-09-01T07:04:28;18.20;99.90
19415;DHT22;9843;48.882;12.592;2022-09-01T07:06:56;18.20;99.90
19415;DHT22;9843;48.882;12.592;2022-09-01T07:09:23;18.20;99.90
19415;DHT22;9843;48.882;12.592;2022-09-01T07:11:50;18.30;99.90
19415;DHT22;9843;48.882;12.592;2022-09-01T07:14:17;18.40;99.90
19415;DHT22;9843;48.882;12.592;2022-09-01T07:16:45;18.30;99.90
19415;DHT22;9843;48.882;12.592;2022-09-01T07:19:13;18.30;99.90
19415;DHT22;9843;48.882;12.592;2022-09-01T07:21:41;18.30;99.90
19415;DHT22;9843;48.882;12.592;2022-09-01T07:24:08;18.40;99.90
19415;DHT22;9843;48.882;12.592;2022-09-01T07:26:36;18.80;99.90
19415;DHT22;9843;48.882;12.592;2022-09-01T07:29:04;19.20;99.90
19415;DHT22;9843;48.882;12.592;2022-09-01T07:31:34;19.70;99.90
19415;DHT22;9843;48.882;12.592;2022-09-01T07:34:08;20.60;99.90
19415;DHT22;9843;48.882;12.592;2022-09-01T07:36:39;21.80;99.90
19415;DHT22;9843;48.882;12.592;2022-09-01T07:39:07;22.80;99.90
19415;DHT22;9843;48.882;12.592;2022-09-01T07:41:34;23.70;99.90
19415;DHT22;9843;48.882;12.592;2022-09-01T07:44:03;24.30;99.90
19415;DHT22;9843;48.882;12.592;2022-09-01T07:46:30;24.40;99.90
19415;DHT22;9843;48.882;12.592;2022-09-01T07:48:58;24.80;99.90
19415;DHT22;9843;48.882;12.592;2022-09-01T07:51:27;24.90;99.90
19415;DHT22;9843;48.882;12.592;2022-09-01T07:53:56;24.60;99.90
19415;DHT22;9843;48.882;12.592;2022-09-01T07:56:23;24.00;99.90
19415;DHT22;9843;48.882;12.592;2022-09-01T07:58:51;23.10;99.90
19415;DHT22;9843;48.882;12.592;2022-09-01T08:01:19;22.60;99.90
19415;DHT22;9843;48.882;12.592;2022-09-01T08:03:49;22.10;99.90
19415;DHT22;9843;48.882;12.592;2022-09-01T08:06:18;21.60;99.90
19415;DHT22;9843;48.882;12.592;2022-09-01T08:08:45;21.30;99.90
19415;DHT22;9843;48.882;12.592;2022-09-01T08:11:17;21.30;99.90
19415;DHT22;9843;48.882;12.592;2022-09-01T08:13:44;21.20;99.90
19415;DHT22;9843;48.882;12.592;2022-09-01T08:16:12;21.10;99.90
19415;DHT22;9843;48.882;12.592;2022-09-01T08:18:39;21.60;99.90
19415;DHT22;9843;48.882;12.592;2022-09-01T08:21:07;22.20;99.90
19415;DHT22;9843;48.882;12.592;2022-09-01T08:23:34;22.80;99.90
19415;DHT22;9843;48.882;12.592;2022-09-01T08:26:05;23.10;99.90
19415;DHT22;9843;48.882;12.592;2022-09-01T08:28:33;23.00;99.90
19415;DHT22;9843;48.882;12.592;2022-09-01T08:31:05;23.30;99.90
19415;DHT22;9843;48.882;12.592;2022-09-01T08:33:32;23.30;99.90
19415;DHT22;9843;48.882;12.592;2022-09-01T08:35:59;23.40;99.90
19415;DHT22;9843;48.882;12.592;2022-09-01T08:38:26;23.20;99.90
19415;DHT22;9843;48.882;12.592;2022-09-01T08:40:55;22.90;99.90
19415;DHT22;9843;48.882;12.592;2022-09-01T08:43:30;22.80;99.90
19415;DHT22;9843;48.882;12.592;2022-09-01T08:46:08;23.90;99.90
19415;DHT22;9843;48.882;12.592;2022-09-01T08:48:39;25.10;99.90
19415;DHT22;9843;48.882;12.592;2022-09-01T08:51:13;24.80;99.90
19415;DHT22;9843;48.882;12.592;2022-09-01T08:53:45;24.40;99.90
19415;DHT22;9843;48.882;12.592;2022-09-01T08:56:14;23.00;99.90
19415;DHT22;9843;48.882;12.592;2022-09-01T08:58:42;21.60;99.90
19415;DHT22;9843;48.882;12.592;2022-09-01T09:01:14;21.10;99.90
19415;DHT22;9843;48.882;12.592;2022-09-01T09:03:54;20.90;99.90
19415;DHT22;9843;48.882;12.592;2022-09-01T09:06:27;20.60;99.90
19415;DHT22;9843;48.882;12.592;2022-09-01T09:08:57;20.60;99.90
19415;DHT22;9843;48.882;12.592;2022-09-01T09:11:50;20.40;99.90
19415;DHT22;9843;48.882;12.592;2022-09-01T09:14:32;20.40;99.90
19415;DHT22;9843;48.882;12.592;2022-09-01T09:17:01;20.50;99.90
19415;DHT22;9843;48.882;12.592;2022-09-01T09:19:31;20.80;99.90
19415;DHT22;9843;48.882;12.592;2022-09-01T09:22:00;21.10;99.90
19415;DHT22;9843;48.882;12.592;2022-09-01T09:24:29;21.30;99.90
19415;DHT22;9843;48.882;12.592;2022-09-01T09:27:16;21.60;99.90
19415;DHT22;9843;48.882;12.592;2022-09-01T09:29:44;22.00;99.90
19415;DHT22;9843;48.882;12.592;2022-09-01T09:32:12;23.00;99.90
19415;DHT22;9843;48.882;12.592;2022-09-01T09:34:40;24.00;99.90
19415;DHT22;9843;48.882;12.592;2022-09-01T09:37:23;24.10;99.90
19415;DHT22;9843;48.882;12.592;2022-09-01T09:40:07;23.90;99.90
19415;DHT22;9843;48.882;12.592;2022-09-01T09:42:34;23.80;99.90
19415;DHT22;9843;48.882;12.592;2022-09-01T09:45:06;24.50;99.90
19415;DHT22;9843;48.882;12.592;2022-09-01T09:47:45;25.70;99.90
19415;DHT22;9843;48.882;12.592;2022-09-01T09:50:17;26.40;99.10
19415;DHT22;9843;48.882;12.592;2022-09-01T09:52:45;26.10;99.40
19415;DHT22;9843;48.882;12.592;2022-09-01T09:55:22;25.60;98.70
19415;DHT22;9843;48.882;12.592;2022-09-01T09:57:50;25.00;95.30
19415;DHT22;9843;48.882;12.592;2022-09-01T10:00:20;24.50;94.80
19415;DHT22;9843;48.882;12.592;2022-09-01T10:02:55;24.40;95.10
19415;DHT22;9843;48.882;12.592;2022-09-01T10:05:36;25.20;94.10
19415;DHT22;9843;48.882;12.592;2022-09-01T10:08:05;24.60;93.70
19415;DHT22;9843;48.882;12.592;2022-09-01T10:10:37;23.70;94.70
19415;DHT22;9843;48.882;12.592;2022-09-01T10:13:09;22.70;94.50
19415;DHT22;9843;48.882;12.592;2022-09-01T10:15:38;22.40;97.60
19415;DHT22;9843;48.882;12.592;2022-09-01T10:18:09;22.20;99.90
19415;DHT22;9843;48.882;12.592;2022-09-01T10:20:44;21.90;99.90
19415;DHT22;9843;48.882;12.592;2022-09-01T10:23:12;21.70;99.90
19415;DHT22;9843;48.882;12.592;2022-09-01T10:25:39;21.50;99.90
19415;DHT22;9843;48.882;12.592;2022-09-01T10:28:10;21.00;99.90
19415;DHT22;9843;48.882;12.592;2022-09-01T10:30:40;20.80;99.90
19415;DHT22;9843;48.882;12.592;2022-09-01T10:33:10;20.50;99.90
19415;DHT22;9843;48.882;12.592;2022-09-01T10:35:41;20.40;99.90
19415;DHT22;9843;48.882;12.592;2022-09-01T10:38:11;20.50;99.90
19415;DHT22;9843;48.882;12.592;2022-09-01T10:40:41;20.70;99.90
19415;DHT22;9843;48.882;12.592;2022-09-01T10:43:34;21.60;99.90
19415;DHT22;9843;48.882;12.592;2022-09-01T10:48:57;22.90;99.90
19415;DHT22;9843;48.882;12.592;2022-09-01T10:51:44;24.90;99.90
19415;DHT22;9843;48.882;12.592;2022-09-01T10:57:18;29.30;94.90
19415;DHT22;9843;48.882;12.592;2022-09-01T10:59:47;29.70;91.90
19415;DHT22;9843;48.882;12.592;2022-09-01T11:02:15;31.00;89.80
19415;DHT22;9843;48.882;12.592;2022-09-01T11:05:10;31.10;77.50
19415;DHT22;9843;48.882;12.592;2022-09-01T11:07:38;28.70;77.20
19415;DHT22;9843;48.882;12.592;2022-09-01T11:10:34;27.40;79.20
19415;DHT22;9843;48.882;12.592;2022-09-01T11:13:32;27.50;82.80
19415;DHT22;9843;48.882;12.592;2022-09-01T11:16:27;28.00;87.40
19415;DHT22;9843;48.882;12.592;2022-09-01T11:18:55;27.60;86.40
19415;DHT22;9843;48.882;12.592;2022-09-01T11:21:43;26.80;80.90
19415;DHT22;9843;48.882;12.592;2022-09-01T11:27:54;24.20;84.50
19415;DHT22;9843;48.882;12.592;2022-09-01T11:30:06;23.80;90.20
19415;DHT22;9843;48.882;12.592;2022-09-01T11:32:35;22.40;91.30
19415;DHT22;9843;48.882;12.592;2022-09-01T11:35:05;22.00;93.50
19415;DHT22;9843;48.882;12.592;2022-09-01T11:37:39;21.50;93.00
19415;DHT22;9843;48.882;12.592;2022-09-01T11:40:07;20.80;94.10
19415;DHT22;9843;48.882;12.592;2022-09-01T11:42:39;20.50;94.50
19415;DHT22;9843;48.882;12.592;2022-09-01T11:45:14;20.20;95.20
19415;DHT22;9843;48.882;12.592;2022-09-01T11:47:44;20.10;97.20
19415;DHT22;9843;48.882;12.592;2022-09-01T11:50:18;20.00;96.80
19415;DHT22;9843;48.882;12.592;2022-09-01T11:52:54;19.80;96.20
19415;DHT22;9843;48.882;12.592;2022-09-01T11:55:28;19.70;96.70
19415;DHT22;9843;48.882;12.592;2022-09-01T11:57:56;19.70;97.20
19415;DHT22;9843;48.882;12.592;2022-09-01T12:00:30;19.70;97.80
19415;DHT22;9843;48.882;12.592;2022-09-01T12:02:57;19.80;96.60
19415;DHT22;9843;48.882;12.592;2022-09-01T12:05:29;19.90;96.80
19415;DHT22;9843;48.882;12.592;2022-09-01T12:07:58;20.10;97.00
19415;DHT22;9843;48.882;12.592;2022-09-01T12:10:30;20.10;96.40
19415;DHT22;9843;48.882;12.592;2022-09-01T12:13:03;20.20;96.20
19415;DHT22;9843;48.882;12.592;2022-09-01T12:15:32;20.40;96.10
19415;DHT22;9843;48.882;12.592;2022-09-01T12:18:13;20.80;96.40
19415;DHT22;9843;48.882;12.592;2022-09-01T12:20:44;21.40;95.50
19415;DHT22;9843;48.882;12.592;2022-09-01T12:23:18;22.30;94.60
19415;DHT22;9843;48.882;12.592;2022-09-01T12:25:48;23.60;92.50
19415;DHT22;9843;48.882;12.592;2022-09-01T12:28:15;25.60;92.30
19415;DHT22;9843;48.882;12.592;2022-09-01T12:30:43;27.40;85.20
19415;DHT22;9843;48.882;12.592;2022-09-01T12:33:11;28.70;79.40
19415;DHT22;9843;48.882;12.592;2022-09-01T12:35:39;29.80;83.30
19415;DHT22;9843;48.882;12.592;2022-09-01T12:38:27;30.10;77.50
19415;DHT22;9843;48.882;12.592;2022-09-01T12:40:55;30.00;73.70
19415;DHT22;9843;48.882;12.592;2022-09-01T12:43:34;30.20;73.90
19415;DHT22;9843;48.882;12.592;2022-09-01T12:46:05;30.30;75.10
19415;DHT22;9843;48.882;12.592;2022-09-01T12:48:36;29.80;74.20
19415;DHT22;9843;48.882;12.592;2022-09-01T12:51:13;29.40;77.50
19415;DHT22;9843;48.882;12.592;2022-09-01T12:53:49;28.80;78.50
19415;DHT22;9843;48.882;12.592;2022-09-01T12:56:20;28.70;80.10
19415;DHT22;9843;48.882;12.592;2022-09-01T12:58:50;28.70;77.30
19415;DHT22;9843;48.882;12.592;2022-09-01T13:01:29;28.70;75.80
19415;DHT22;9843;48.882;12.592;2022-09-01T13:04:23;28.50;74.90
19415;DHT22;9843;48.882;12.592;2022-09-01T13:06:51;28.30;76.10
19415;DHT22;9843;48.882;12.592;2022-09-01T13:09:18;28.10;79.30
19415;DHT22;9843;48.882;12.592;2022-09-01T13:11:45;27.80;79.30
19415;DHT22;9843;48.882;12.592;2022-09-01T13:14:12;27.30;77.50
19415;DHT22;9843;48.882;12.592;2022-09-01T13:16:41;26.80;80.30
19415;DHT22;9843;48.882;12.592;2022-09-01T13:19:08;26.00;81.50
19415;DHT22;9843;48.882;12.592;2022-09-01T13:21:35;25.40;80.80
19415;DHT22;9843;48.882;12.592;2022-09-01T13:24:04;24.80;82.00
19415;DHT22;9843;48.882;12.592;2022-09-01T13:26:31;24.30;85.60
19415;DHT22;9843;48.882;12.592;2022-09-01T13:28:58;23.80;85.90
19415;DHT22;9843;48.882;12.592;2022-09-01T13:31:25;23.40;83.00
19415;DHT22;9843;48.882;12.592;2022-09-01T13:33:55;23.10;89.20
19415;DHT22;9843;48.882;12.592;2022-09-01T13:36:21;22.80;87.00
19415;DHT22;9843;48.882;12.592;2022-09-01T13:38:48;22.40;84.00
19415;DHT22;9843;48.882;12.592;2022-09-01T13:41:15;22.20;87.40
19415;DHT22;9843;48.882;12.592;2022-09-01T13:43:43;22.10;89.90
19415;DHT22;9843;48.882;12.592;2022-09-01T13:46:11;22.10;87.10
19415;DHT22;9843;48.882;12.592;2022-09-01T13:48:37;22.00;90.70
19415;DHT22;9843;48.882;12.592;2022-09-01T13:51:06;22.10;91.50
19415;DHT22;9843;48.882;12.592;2022-09-01T13:53:33;22.20;88.60
19415;DHT22;9843;48.882;12.592;2022-09-01T13:56:00;22.30;90.30
19415;DHT22;9843;48.882;12.592;2022-09-01T13:58:26;22.40;90.90
19415;DHT22;9843;48.882;12.592;2022-09-01T14:00:53;22.70;90.20
19415;DHT22;9843;48.882;12.592;2022-09-01T14:03:23;23.00;89.90
19415;DHT22;9843;48.882;12.592;2022-09-01T14:05:50;23.20;87.60
19415;DHT22;9843;48.882;12.592;2022-09-01T14:08:19;23.30;86.30
19415;DHT22;9843;48.882;12.592;2022-09-01T14:10:50;23.50;85.10
19415;DHT22;9843;48.882;12.592;2022-09-01T14:13:17;23.90;87.80
19415;DHT22;9843;48.882;12.592;2022-09-01T14:15:44;24.40;83.00
19415;DHT22;9843;48.882;12.592;2022-09-01T14:18:13;24.30;80.50
19415;DHT22;9843;48.882;12.592;2022-09-01T14:20:43;24.10;86.90
19415;DHT22;9843;48.882;12.592;2022-09-01T14:23:10;24.00;90.20
19415;DHT22;9843;48.882;12.592;2022-09-01T14:25:42;23.90;90.40
19415;DHT22;9843;48.882;12.592;2022-09-01T14:28:09;23.70;91.00
19415;DHT22;9843;48.882;12.592;2022-09-01T14:30:36;23.60;91.40
19415;DHT22;9843;48.882;12.592;2022-09-01T14:33:02;23.50;92.10
19415;DHT22;9843;48.882;12.592;2022-09-01T14:35:30;23.60;92.30
19415;DHT22;9843;48.882;12.592;2022-09-01T14:37:58;24.00;92.50
19415;DHT22;9843;48.882;12.592;2022-09-01T14:40:25;24.30;91.80
19415;DHT22;9843;48.882;12.592;2022-09-01T14:42:54;24.70;91.40
19415;DHT22;9843;48.882;12.592;2022-09-01T14:45:23;24.90;89.40
19415;DHT22;9843;48.882;12.592;2022-09-01T14:47:53;24.70;88.40
19415;DHT22;9843;48.882;12.592;2022-09-01T14:50:22;24.40;90.40
19415;DHT22;9843;48.882;12.592;2022-09-01T14:52:51;24.00;91.20
19415;DHT22;9843;48.882;12.592;2022-09-01T14:55:18;23.50;91.50
19415;DHT22;9843;48.882;12.592;2022-09-01T14:57:45;23.10;91.80
19415;DHT22;9843;48.882;12.592;2022-09-01T15:00:13;22.90;92.00
19415;DHT22;9843;48.882;12.592;2022-09-01T15:02:42;22.70;93.30
19415;DHT22;9843;48.882;12.592;2022-09-01T15:05:09;22.50;93.40
19415;DHT22;9843;48.882;12.592;2022-09-01T15:07:37;22.40;92.60
19415;DHT22;9843;48.882;12.592;2022-09-01T15:10:06;22.30;92.90
19415;DHT22;9843;48.882;12.592;2022-09-01T15:12:33;22.30;93.20
19415;DHT22;9843;48.882;12.592;2022-09-01T15:15:00;22.20;94.20
19415;DHT22;9843;48.882;12.592;2022-09-01T15:17:28;22.10;94.00
19415;DHT22;9843;48.882;12.592;2022-09-01T15:19:55;22.00;94.40
19415;DHT22;9843;48.882;12.592;2022-09-01T15:22:41;21.90;94.70
19415;DHT22;9843;48.882;12.592;2022-09-01T15:25:09;21.80;95.70
19415;DHT22;9843;48.882;12.592;2022-09-01T15:27:35;21.70;94.90
19415;DHT22;9843;48.882;12.592;2022-09-01T15:30:02;21.70;95.60
19415;DHT22;9843;48.882;12.592;2022-09-01T15:32:40;21.70;95.20
19415;DHT22;9843;48.882;12.592;2022-09-01T15:35:07;21.70;95.30
19415;DHT22;9843;48.882;12.592;2022-09-01T15:37:34;21.50;95.30
19415;DHT22;9843;48.882;12.592;2022-09-01T15:40:02;21.40;95.00
19415;DHT22;9843;48.882;12.592;2022-09-01T15:42:29;21.30;95.70
19415;DHT22;9843;48.882;12.592;2022-09-01T15:44:55;21.20;95.50
19415;DHT22;9843;48.882;12.592;2022-09-01T15:47:22;21.10;95.40
19415;DHT22;9843;48.882;12.592;2022-09-01T15:49:50;21.00;97.20
19415;DHT22;9843;48.882;12.592;2022-09-01T15:52:17;20.90;97.00
19415;DHT22;9843;48.882;12.592;2022-09-01T15:54:45;20.90;97.40
19415;DHT22;9843;48.882;12.592;2022-09-01T15:57:12;20.80;96.80